TimeMST,TemperatureF,Dew PointF,Humidity,Sea Level PressureIn,VisibilityMPH,Wind Direction,Wind SpeedMPH,Gust SpeedMPH,PrecipitationIn,Events,Conditions,WindDirDegrees,DateUTC
12:53 AM,7.0,3.0,84,30.05,10.0,Calm,Calm,-,N/A,,Clear,0,2012-12-28 07:53:00
1:53 AM,7.0,3.0,84,30.06,10.0,Calm,Calm,-,N/A,,Clear,0,2012-12-28 08:53:00
2:53 AM,6.1,3.0,87,30.09,10.0,Calm,Calm,-,N/A,,Clear,0,2012-12-28 09:53:00
3:53 AM,8.1,3.0,80,30.07,10.0,Calm,Calm,-,N/A,,Clear,0,2012-12-28 10:53:00
4:53 AM,6.1,1.0,80,30.09,10.0,Calm,Calm,-,N/A,,Clear,0,2012-12-28 11:53:00
5:53 AM,7.0,1.0,77,30.11,10.0,Calm,Calm,-,N/A,,Clear,0,2012-12-28 12:53:00
6:53 AM,3.9,-0.0,84,30.14,10.0,Calm,Calm,-,N/A,,Clear,0,2012-12-28 13:53:00
7:53 AM,6.1,-0.0,76,30.15,10.0,East,4.6,-,N/A,,Clear,80,2012-12-28 14:53:00
8:53 AM,10.9,3.9,73,30.15,10.0,Calm,Calm,-,N/A,,Clear,0,2012-12-28 15:53:00
9:53 AM,14.0,5.0,67,30.17,10.0,ESE,4.6,-,N/A,,Clear,120,2012-12-28 16:53:00
10:53 AM,19.0,7.0,59,30.15,10.0,SSE,3.5,-,N/A,,Clear,150,2012-12-28 17:53:00
11:53 AM,23.0,8.1,53,30.14,10.0,ESE,3.5,-,N/A,,Clear,110,2012-12-28 18:53:00
12:53 PM,26.1,9.0,49,30.12,10.0,Calm,Calm,-,N/A,,Clear,0,2012-12-28 19:53:00
1:53 PM,28.0,9.0,45,30.11,10.0,Calm,Calm,-,N/A,,Clear,0,2012-12-28 20:53:00
2:53 PM,28.0,10.0,47,30.12,10.0,SSE,4.6,-,N/A,,Clear,150,2012-12-28 21:53:00
3:53 PM,24.1,8.1,51,30.13,10.0,ESE,6.9,-,N/A,,Clear,120,2012-12-28 22:53:00
4:53 PM,21.9,3.0,44,30.16,10.0,Calm,Calm,-,N/A,,Clear,0,2012-12-28 23:53:00
5:53 PM,15.1,5.0,64,30.20,10.0,NNW,5.8,-,N/A,,Clear,330,2012-12-29 00:53:00
6:53 PM,14.0,3.0,62,30.23,10.0,NW,3.5,-,N/A,,Clear,320,2012-12-29 01:53:00
7:53 PM,8.1,1.9,76,30.26,10.0,Calm,Calm,-,N/A,,Clear,0,2012-12-29 02:53:00
8:53 PM,7.0,1.9,80,30.26,10.0,SSE,3.5,-,N/A,,Clear,150,2012-12-29 03:53:00
9:53 PM,7.0,1.9,80,30.25,10.0,SSE,3.5,-,N/A,,Clear,150,2012-12-29 04:53:00
10:53 PM,5.0,-0.9,76,30.25,10.0,South,3.5,-,N/A,,Clear,170,2012-12-29 05:53:00
11:53 PM,3.0,-0.0,87,30.25,10.0,WNW,3.5,-,N/A,,Clear,300,2012-12-29 06:53:00